Time;durP1;ratioP1;P1;durP2;ratioP2;P2;SDS_P1;SDS_P2;PMS_P1;PMS_P2;Temp;Humidity;BMP_temperature;BMP_pressure;BME280_temperature;BME280_humidity;BME280_pressure;Samples;Min_cycle;Max_cycle;Signal;HPM_P1;HPM_P2
2023/05/22 00:01:11;;;;;;;14.80;12.17;;;;;;;19.54;59.13;97052.78;5017728;28;20185;-69
2023/05/22 00:03:36;;;;;;;14.63;11.80;;;;;;;19.54;59.10;97052.78;5023009;28;20732;-70
2023/05/22 00:06:02;;;;;;;12.13;11.00;;;;;;;19.51;59.13;97047.94;5016457;28;20459;-69
2023/05/22 00:08:27;;;;;;;12.43;11.13;;;;;;;19.47;59.33;97050.19;5019200;28;20191;-69
2023/05/22 00:10:54;;;;;;;15.33;12.57;;;;;;;19.49;59.09;97046.28;5026910;28;20681;-70
2023/05/22 00:13:19;;;;;;;14.60;11.93;;;;;;;19.54;59.08;97047.47;5020862;28;20199;-69
2023/05/22 00:15:45;;;;;;;13.67;12.03;;;;;;;19.58;59.04;97044.22;5014324;28;20442;-69
2023/05/22 00:18:12;;;;;;;13.00;11.10;;;;;;;19.62;59.03;97044.59;5027479;28;20241;-69
2023/05/22 00:20:39;;;;;;;13.63;12.23;;;;;;;19.58;58.97;97046.88;5024003;28;20192;-69
2023/05/22 00:23:08;;;;;;;12.23;11.00;;;;;;;19.57;58.80;97041.75;5023925;28;20521;-69
2023/05/22 00:25:34;;;;;;;14.90;11.33;;;;;;;19.58;58.92;97038.06;5028243;28;20470;-69
2023/05/22 00:28:00;;;;;;;12.50;11.20;;;;;;;19.56;58.49;97040.13;5027865;28;20475;-69
2023/05/22 00:30:25;;;;;;;15.03;12.37;;;;;;;19.44;59.09;97045.31;5021963;28;20188;-70
2023/05/22 00:32:51;;;;;;;12.47;11.27;;;;;;;19.40;59.21;97042.28;5021920;28;20215;-70
2023/05/22 00:35:16;;;;;;;15.70;12.00;;;;;;;19.42;58.92;97044.69;5029594;28;20206;-70
2023/05/22 00:37:43;;;;;;;12.90;11.40;;;;;;;19.46;58.92;97044.06;5021051;28;20189;-69
2023/05/22 00:40:09;;;;;;;15.23;11.50;;;;;;;19.44;59.04;97040.78;5051469;28;20282;-70
2023/05/22 00:42:34;;;;;;;13.33;11.90;;;;;;;19.42;59.22;97044.69;5052916;28;20544;-70
2023/05/22 00:45:00;;;;;;;13.00;11.70;;;;;;;19.38;59.07;97031.03;5020711;28;20298;-70
2023/05/22 00:47:25;;;;;;;16.63;11.23;;;;;;;19.25;59.47;97045.19;5055666;28;20322;-69
2023/05/22 00:49:51;;;;;;;16.30;12.40;;;;;;;19.12;59.95;97039.94;5016446;28;20195;-69
2023/05/22 00:52:18;;;;;;;14.57;11.93;;;;;;;19.15;59.73;97040.31;5026105;28;20184;-70
2023/05/22 00:54:44;;;;;;;13.13;11.80;;;;;;;19.05;60.26;97039.16;5011904;28;20200;-70
2023/05/22 00:57:10;;;;;;;14.73;12.13;;;;;;;19.07;60.11;97040.56;5057875;28;20445;-69
2023/05/22 00:59:36;;;;;;;13.30;11.90;;;;;;;19.03;60.11;97040.19;5020306;28;20458;-70
2023/05/22 01:02:01;;;;;;;13.93;11.80;;;;;;;19.10;59.97;97048.13;5017448;28;20267;-69
2023/05/22 01:04:27;;;;;;;13.80;12.40;;;;;;;19.03;60.12;97048.16;5019663;28;20269;-69
2023/05/22 01:06:53;;;;;;;14.47;12.90;;;;;;;19.03;60.16;97044.66;5010970;28;20204;-70
2023/05/22 01:09:19;;;;;;;13.73;12.33;;;;;;;19.02;59.97;97043.06;5020356;28;20939;-70
2023/05/22 01:12:25;;;;;;;12.83;11.53;;;;;;;19.03;59.88;97042.00;5017788;28;20424;-69
2023/05/22 01:15:18;;;;;;;13.73;12.33;;;;;;;19.05;59.84;97045.28;5007110;28;20633;-70
2023/05/22 01:18:11;;;;;;;15.37;13.00;;;;;;;19.07;59.82;97042.41;5024516;28;20446;-71
2023/05/22 01:20:47;;;;;;;13.27;11.87;;;;;;;18.98;59.69;97045.28;5045999;28;21055;-70
2023/05/22 01:23:19;;;;;;;19.50;12.83;;;;;;;18.91;59.92;97046.31;5017303;28;20424;-70
2023/05/22 01:26:20;;;;;;;16.40;12.43;;;;;;;18.94;59.84;97053.91;5015070;28;20546;-70
2023/05/22 01:29:21;;;;;;;13.83;11.97;;;;;;;18.93;59.66;97055.72;5017429;28;20999;-69
2023/05/22 01:31:49;;;;;;;15.23;12.00;;;;;;;18.86;59.86;97055.72;5013755;28;20497;-69
2023/05/22 01:34:15;;;;;;;15.20;12.57;;;;;;;18.86;59.81;97063.69;5015407;28;20435;-68
2023/05/22 01:36:44;;;;;;;13.33;11.93;;;;;;;18.82;60.00;97067.78;5008665;28;20442;-70
2023/05/22 01:39:10;;;;;;;15.63;11.33;;;;;;;18.83;59.98;97064.09;5019029;28;20569;-69
2023/05/22 01:41:36;;;;;;;13.40;11.93;;;;;;;18.74;59.94;97065.38;5014467;28;21074;-68
2023/05/22 01:44:01;;;;;;;13.43;12.10;;;;;;;18.70;60.23;97064.13;5015595;28;20660;-69
2023/05/22 01:46:28;;;;;;;14.10;12.40;;;;;;;18.67;60.36;97075.16;5018021;28;20216;-70
2023/05/22 01:48:53;;;;;;;15.67;12.87;;;;;;;18.63;60.68;97064.16;5021212;28;20661;-70
2023/05/22 01:51:56;;;;;;;15.17;12.90;;;;;;;18.69;60.53;97066.00;5019884;28;20442;-70
2023/05/22 01:54:36;;;;;;;13.87;12.47;;;;;;;18.72;60.37;97062.09;5022400;28;20238;-70
2023/05/22 01:57:18;;;;;;;13.30;11.90;;;;;;;18.74;60.16;97068.03;5005042;28;20430;-71
2023/05/22 01:59:46;;;;;;;16.13;12.60;;;;;;;18.76;60.04;97067.81;5011848;28;20439;-70
2023/05/22 02:02:14;;;;;;;14.63;12.10;;;;;;;18.75;59.96;97066.16;5010488;28;20422;-69
2023/05/22 02:04:43;;;;;;;15.43;11.77;;;;;;;18.57;60.37;97073.75;5011718;28;20558;-70
2023/05/22 02:07:10;;;;;;;14.40;12.90;;;;;;;18.61;59.83;97073.34;5018276;28;20441;-70
2023/05/22 02:09:36;;;;;;;14.90;12.27;;;;;;;18.62;59.97;97073.13;5045633;28;20517;-69
2023/05/22 02:12:02;;;;;;;13.67;12.37;;;;;;;18.54;60.00;97068.84;5014900;28;20434;-70
2023/05/22 02:14:28;;;;;;;14.90;12.27;;;;;;;18.47;60.41;97076.03;5016107;28;20795;-70
2023/05/22 02:16:53;;;;;;;14.17;12.17;;;;;;;18.49;60.08;97074.00;5023044;28;20181;-70
2023/05/22 02:19:19;;;;;;;13.00;11.60;;;;;;;18.53;60.37;97074.38;5019944;28;20283;-69
2023/05/22 02:21:44;;;;;;;13.43;12.03;;;;;;;18.56;60.52;97074.78;5015716;28;20192;-71
2023/05/22 02:24:10;;;;;;;12.97;11.67;;;;;;;18.58;60.48;97069.28;5011621;28;20607;-68
2023/05/22 02:26:36;;;;;;;14.63;13.00;;;;;;;18.60;60.65;97069.06;5046825;28;20192;-70
2023/05/22 02:29:02;;;;;;;15.83;13.10;;;;;;;18.63;60.49;97066.00;5022767;28;20252;-70
2023/05/22 02:31:28;;;;;;;14.77;12.27;;;;;;;18.57;60.49;97071.09;5017588;28;20479;-69
2023/05/22 02:33:53;;;;;;;14.27;12.07;;;;;;;18.55;60.13;97065.19;5021949;28;20196;-69
2023/05/22 02:36:19;;;;;;;17.10;14.20;;;;;;;18.46;60.74;97062.97;5015257;28;20527;-67
2023/05/22 02:38:44;;;;;;;14.90;13.30;;;;;;;18.50;60.74;97064.16;5018733;28;20277;-66
2023/05/22 02:41:10;;;;;;;15.93;13.10;;;;;;;18.51;60.68;97061.34;5020307;28;20221;-69
2023/05/22 02:43:35;;;;;;;13.97;12.57;;;;;;;18.56;60.57;97066.81;5017097;28;20194;-69
2023/05/22 02:46:01;;;;;;;14.30;12.90;;;;;;;18.58;60.96;97061.31;5017303;28;20824;-69
2023/05/22 02:48:28;;;;;;;13.07;11.60;;;;;;;18.52;61.17;97060.31;5015299;28;20223;-69
2023/05/22 02:50:53;;;;;;;14.10;12.70;;;;;;;18.54;61.14;97062.75;5008754;28;20234;-69
2023/05/22 02:53:19;;;;;;;14.17;12.70;;;;;;;18.54;61.19;97060.91;5012995;28;20427;-69
2023/05/22 02:55:44;;;;;;;14.10;12.60;;;;;;;18.57;60.99;97060.50;5008629;28;20217;-69
2023/05/22 02:58:10;;;;;;;15.30;12.60;;;;;;;18.58;60.96;97056.81;5017308;28;20200;-69
2023/05/22 03:00:36;;;;;;;14.77;11.70;;;;;;;18.54;61.05;97058.25;5010509;28;20267;-70
2023/05/22 03:03:03;;;;;;;13.97;11.70;;;;;;;18.58;61.13;97054.16;5013811;28;20565;-68
2023/05/22 03:05:28;;;;;;;12.93;11.50;;;;;;;18.62;60.97;97064.38;5009930;28;20471;-69
2023/05/22 03:07:54;;;;;;;16.47;12.70;;;;;;;18.62;60.95;97061.72;5009111;28;20478;-69
2023/05/22 03:10:20;;;;;;;16.20;12.47;;;;;;;18.61;61.01;97060.09;5011840;28;20751;-69
2023/05/22 03:12:46;;;;;;;13.97;11.93;;;;;;;18.63;61.09;97066.81;5010566;28;20427;-69
2023/05/22 03:15:12;;;;;;;14.30;12.57;;;;;;;18.67;60.93;97069.84;5016282;28;20447;-69
2023/05/22 03:17:37;;;;;;;14.73;13.33;;;;;;;18.60;60.93;97069.06;5011360;28;20457;-69
2023/05/22 03:20:04;;;;;;;17.20;13.17;;;;;;;18.50;61.10;97075.63;5012799;28;20187;-69
2023/05/22 03:22:29;;;;;;;16.00;13.10;;;;;;;18.47;61.42;97070.72;5016811;28;20258;-68
2023/05/22 03:24:55;;;;;;;15.43;13.73;;;;;;;18.40;61.94;97075.19;5015803;28;20466;-69
2023/05/22 03:27:20;;;;;;;14.77;12.63;;;;;;;18.43;61.97;97080.09;5014914;28;20250;-70
2023/05/22 03:29:46;;;;;;;19.37;12.77;;;;;;;18.50;61.98;97080.09;5011412;28;20194;-69
2023/05/22 03:32:11;;;;;;;15.23;12.27;;;;;;;18.54;62.18;97079.47;5017620;28;20690;-69
2023/05/22 03:34:37;;;;;;;13.90;12.50;;;;;;;18.57;62.04;97084.38;5020025;28;20207;-69
2023/05/22 03:37:02;;;;;;;16.10;13.00;;;;;;;18.61;62.01;97084.78;5015161;28;20185;-69
2023/05/22 03:39:28;;;;;;;13.80;12.40;;;;;;;18.62;62.03;97085.59;5016087;28;20223;-69
2023/05/22 03:41:53;;;;;;;16.73;13.33;;;;;;;18.66;61.82;97089.47;5044531;28;20692;-69
2023/05/22 03:44:19;;;;;;;14.20;12.10;;;;;;;18.67;61.61;97086.63;5014308;28;20188;-69
2023/05/22 03:46:45;;;;;;;14.77;13.00;;;;;;;18.65;61.47;97082.53;5014381;28;20187;-69
2023/05/22 03:49:10;;;;;;;18.10;12.47;;;;;;;18.51;61.88;97087.88;5010086;28;20271;-69
2023/05/22 03:51:35;;;;;;;15.83;13.20;;;;;;;18.55;61.54;97089.06;5009201;28;20195;-69
2023/05/22 03:54:01;;;;;;;13.83;12.40;;;;;;;18.54;61.82;97092.75;5011123;28;20183;-69
2023/05/22 03:56:27;;;;;;;15.03;13.40;;;;;;;18.59;61.77;97094.78;5017085;28;20208;-68
2023/05/22 03:58:52;;;;;;;16.23;14.13;;;;;;;18.60;61.51;97087.63;5013432;28;20200;-69
2023/05/22 04:01:17;;;;;;;16.43;14.50;;;;;;;18.55;61.80;97091.72;5019697;28;20223;-68
2023/05/22 04:03:43;;;;;;;15.40;12.43;;;;;;;18.55;61.76;97089.06;5010482;28;20322;-69
2023/05/22 04:06:09;;;;;;;14.40;12.90;;;;;;;18.56;61.77;97092.56;5012926;28;20697;-69
2023/05/22 04:08:35;;;;;;;15.37;13.87;;;;;;;18.53;62.25;97092.97;5007601;28;20216;-69
2023/05/22 04:11:01;;;;;;;16.70;13.63;;;;;;;18.56;62.39;97095.22;5012416;28;20455;-68
2023/05/22 04:13:29;;;;;;;18.47;14.33;;;;;;;18.58;62.37;97104.59;5015318;28;20215;-69
2023/05/22 04:15:55;;;;;;;16.97;13.80;;;;;;;18.57;62.60;97102.94;5013990;28;20463;-70
2023/05/22 04:18:21;;;;;;;20.80;14.40;;;;;;;18.56;62.56;97105.81;5006194;28;20438;-70
2023/05/22 04:20:46;;;;;;;15.43;13.50;;;;;;;18.52;62.66;97105.44;5010684;28;20705;-70
2023/05/22 04:23:12;;;;;;;14.57;12.67;;;;;;;18.57;62.54;97110.09;5017826;28;20192;-70
2023/05/22 04:25:37;;;;;;;17.07;13.43;;;;;;;18.53;62.56;97107.03;5012016;28;20232;-69
2023/05/22 04:28:03;;;;;;;17.53;14.20;;;;;;;18.61;62.61;97115.81;5020219;28;20659;-69
2023/05/22 04:30:36;;;;;;;18.50;14.93;;;;;;;18.62;62.50;97117.44;5027033;28;20279;-70
2023/05/22 04:33:04;;;;;;;14.93;13.37;;;;;;;18.65;62.58;97111.75;5011396;28;20664;-70
2023/05/22 04:35:29;;;;;;;16.17;14.47;;;;;;;18.67;62.21;97109.66;5010168;28;20979;-69
2023/05/22 04:37:56;;;;;;;14.77;13.17;;;;;;;18.67;62.44;97117.63;5007123;28;20466;-70
2023/05/22 04:40:21;;;;;;;15.07;13.63;;;;;;;18.68;62.45;97106.81;5046804;28;20697;-69
2023/05/22 04:42:46;;;;;;;15.20;13.70;;;;;;;18.70;62.50;97114.56;5019205;28;20445;-69
2023/05/22 04:45:12;;;;;;;16.20;13.87;;;;;;;18.69;62.66;97116.41;5017297;28;20242;-69
2023/05/22 04:47:40;;;;;;;14.87;13.27;;;;;;;18.68;62.77;97112.13;5018062;28;20226;-68
2023/05/22 04:50:06;;;;;;;17.30;12.73;;;;;;;18.68;62.89;97106.81;5019858;28;20198;-69
2023/05/22 04:52:32;;;;;;;15.50;13.20;;;;;;;18.68;63.09;97113.97;5016000;28;20438;-68
2023/05/22 04:54:57;;;;;;;14.43;12.93;;;;;;;18.57;63.65;97113.56;5020108;28;20447;-69
2023/05/22 04:57:24;;;;;;;17.67;13.70;;;;;;;18.62;63.28;97114.78;5018470;28;20571;-68
2023/05/22 04:59:50;;;;;;;16.57;13.93;;;;;;;18.72;63.21;97112.53;5026679;28;20199;-68
2023/05/22 05:02:15;;;;;;;15.97;14.30;;;;;;;18.80;63.00;97120.25;5014514;28;20448;-69
2023/05/22 05:04:42;;;;;;;18.83;14.50;;;;;;;18.87;62.89;97115.78;5010848;28;20216;-69
2023/05/22 05:07:07;;;;;;;15.90;14.30;;;;;;;18.94;62.84;97114.97;5024956;28;20200;-70
2023/05/22 05:09:33;;;;;;;17.60;13.97;;;;;;;18.99;62.73;97113.31;5016620;28;20427;-71
2023/05/22 05:11:58;;;;;;;25.30;15.57;;;;;;;19.02;62.68;97114.75;5016101;28;20871;-70
2023/05/22 05:14:24;;;;;;;19.10;14.50;;;;;;;19.09;62.82;97117.41;5017615;28;20558;-70
2023/05/22 05:16:53;;;;;;;18.93;15.50;;;;;;;19.14;62.68;97115.75;5013794;28;20668;-70
2023/05/22 05:19:22;;;;;;;17.90;15.73;;;;;;;19.16;62.64;97118.97;5013417;28;20431;-68
2023/05/22 05:21:48;;;;;;;17.90;14.43;;;;;;;19.27;62.29;97116.72;5024291;28;20437;-70
2023/05/22 05:24:17;;;;;;;21.03;14.50;;;;;;;19.30;62.21;97116.28;5014480;28;20427;-70
2023/05/22 05:26:43;;;;;;;15.80;14.20;;;;;;;19.31;62.59;97110.78;5011360;28;20535;-70
2023/05/22 05:29:08;;;;;;;19.23;15.40;;;;;;;19.32;62.72;97114.22;5010328;28;20526;-70
2023/05/22 05:31:34;;;;;;;18.53;15.23;;;;;;;19.33;62.43;97108.72;5011500;28;20315;-70
2023/05/22 05:33:59;;;;;;;18.20;15.30;;;;;;;19.36;62.50;97109.31;5021559;28;20199;-71
2023/05/22 05:36:25;;;;;;;16.37;14.67;;;;;;;19.39;62.46;97109.72;5019186;28;20211;-71
2023/05/22 05:38:50;;;;;;;19.20;15.43;;;;;;;19.42;62.36;97103.97;5013145;28;20196;-70
2023/05/22 05:41:16;;;;;;;18.20;15.63;;;;;;;19.51;62.75;97106.41;5025875;28;20183;-69
2023/05/22 05:43:41;;;;;;;18.50;15.27;;;;;;;19.63;62.65;97116.13;5022974;28;20211;-70
2023/05/22 05:46:07;;;;;;;20.83;15.10;;;;;;;19.80;62.49;97111.13;5014289;28;20693;-70
2023/05/22 05:48:32;;;;;;;18.30;15.70;;;;;;;19.98;62.28;97111.47;5015786;28;20279;-70
2023/05/22 05:50:57;;;;;;;16.53;14.10;;;;;;;20.15;61.97;97114.44;5015030;28;20187;-71
2023/05/22 05:53:23;;;;;;;16.17;14.47;;;;;;;20.31;61.24;97121.84;5021652;28;20736;-70
2023/05/22 05:55:48;;;;;;;15.80;14.20;;;;;;;20.49;61.03;97115.78;5022561;28;20219;-70
2023/05/22 05:58:14;;;;;;;16.60;13.97;;;;;;;20.68;60.60;97116.63;5025199;28;20242;-70
2023/05/22 06:00:41;;;;;;;20.97;14.97;;;;;;;20.85;60.25;97126.75;5018118;28;20692;-70
2023/05/22 06:03:06;;;;;;;16.90;14.27;;;;;;;21.04;59.46;97126.78;5010295;28;20192;-70
2023/05/22 06:05:32;;;;;;;21.77;14.70;;;;;;;21.20;59.13;97126.16;5013292;28;20473;-69
2023/05/22 06:07:57;;;;;;;16.93;13.40;;;;;;;21.33;58.32;97122.56;5017578;28;20191;-70
2023/05/22 06:10:23;;;;;;;16.37;14.57;;;;;;;21.51;58.14;97129.72;5010011;28;20208;-71
2023/05/22 06:12:48;;;;;;;16.70;12.40;;;;;;;21.69;58.01;97125.41;5010105;28;20204;-70
2023/05/22 06:15:14;;;;;;;14.57;13.07;;;;;;;21.87;57.67;97128.03;5013735;28;20270;-71
2023/05/22 06:17:39;;;;;;;14.93;12.93;;;;;;;22.03;56.82;97128.44;5018961;28;20188;-70
2023/05/22 06:20:05;;;;;;;14.07;12.60;;;;;;;22.18;56.32;97128.78;5015786;28;20723;-72
2023/05/22 06:22:31;;;;;;;14.83;12.33;;;;;;;22.36;56.08;97121.75;5033998;28;20544;-72
2023/05/22 06:24:57;;;;;;;15.00;12.43;;;;;;;22.49;54.98;97137.59;5008594;28;20481;-70
2023/05/22 06:27:23;;;;;;;13.23;11.87;;;;;;;22.67;54.76;97135.88;5019017;28;20202;-70
2023/05/22 06:29:49;;;;;;;12.23;10.93;;;;;;;22.81;54.06;97141.78;5000161;28;20198;-69
2023/05/22 06:32:15;;;;;;;16.10;11.90;;;;;;;22.91;53.48;97135.88;5016407;28;20505;-72
2023/05/22 06:34:43;;;;;;;12.43;11.23;;;;;;;22.97;52.77;97141.09;5022119;28;20450;-71
2023/05/22 06:37:08;;;;;;;13.53;11.20;;;;;;;23.15;52.88;97133.97;5015273;28;20238;-72
2023/05/22 06:39:34;;;;;;;12.70;11.40;;;;;;;23.34;52.84;97128.50;5011693;28;20435;-72
2023/05/22 06:41:59;;;;;;;16.63;12.10;;;;;;;23.46;52.18;97129.28;5016829;28;20558;-71
2023/05/22 06:44:25;;;;;;;16.00;12.37;;;;;;;23.60;51.98;97133.31;5019242;28;20200;-72
2023/05/22 06:46:51;;;;;;;14.57;12.10;;;;;;;23.73;51.78;97132.22;5010159;28;20234;-71
2023/05/22 06:49:17;;;;;;;14.10;11.70;;;;;;;23.85;51.05;97131.34;5022286;28;20248;-72
2023/05/22 06:51:44;;;;;;;12.87;11.50;;;;;;;23.97;50.80;97131.31;5013517;28;20427;-71
2023/05/22 06:54:11;;;;;;;11.50;10.50;;;;;;;24.12;50.50;97130.78;5016516;28;20477;-71
2023/05/22 06:56:37;;;;;;;16.20;12.47;;;;;;;24.26;50.47;97133.97;5016751;28;20517;-72
2023/05/22 06:59:02;;;;;;;12.30;11.00;;;;;;;24.42;49.97;97127.78;5012798;28;20435;-71
2023/05/22 07:01:28;;;;;;;15.43;11.77;;;;;;;24.56;50.03;97133.66;5008610;28;20571;-71
2023/05/22 07:03:56;;;;;;;13.17;11.70;;;;;;;24.72;49.60;97136.56;5041739;28;20712;-71
2023/05/22 07:06:21;;;;;;;17.27;11.77;;;;;;;24.86;48.84;97143.22;5010668;28;20720;-71
2023/05/22 07:08:47;;;;;;;13.33;12.00;;;;;;;24.91;48.26;97142.47;5017852;28;20432;-71
2023/05/22 07:11:12;;;;;;;12.97;11.60;;;;;;;25.07;48.46;97146.19;5014017;28;20664;-70
2023/05/22 07:13:38;;;;;;;14.27;11.77;;;;;;;25.25;48.33;97147.78;5013772;28;20271;-71
2023/05/22 07:16:03;;;;;;;12.07;10.83;;;;;;;25.37;47.49;97137.72;5014787;28;20296;-71
2023/05/22 07:18:30;;;;;;;13.50;12.00;;;;;;;25.55;47.21;97144.69;5009571;28;20207;-71
2023/05/22 07:20:55;;;;;;;13.87;11.93;;;;;;;25.64;45.95;97142.38;5010544;28;20196;-72
2023/05/22 07:23:20;;;;;;;12.40;11.10;;;;;;;25.80;46.68;97146.03;5019891;28;20533;-71
2023/05/22 07:25:46;;;;;;;12.50;11.30;;;;;;;25.80;46.46;97146.03;5011417;28;20220;-71
2023/05/22 07:28:11;;;;;;;12.50;11.20;;;;;;;25.84;46.42;97151.69;5005880;28;20195;-71
2023/05/22 07:30:37;;;;;;;14.27;12.80;;;;;;;25.80;45.83;97142.50;5014010;28;20730;-70
2023/05/22 07:33:03;;;;;;;12.37;11.03;;;;;;;25.69;46.15;97149.66;5012151;28;20188;-70
2023/05/22 07:35:29;;;;;;;13.17;11.80;;;;;;;25.72;46.16;97143.75;5010360;28;20219;-71
2023/05/22 07:37:54;;;;;;;13.57;11.70;;;;;;;25.72;46.32;97136.53;5007553;28;20464;-72
2023/05/22 07:40:19;;;;;;;12.07;10.97;;;;;;;25.71;46.74;97136.78;5008608;28;20196;-71
2023/05/22 07:42:45;;;;;;;14.50;10.17;;;;;;;25.63;46.55;97140.75;5006952;28;20243;-71
2023/05/22 07:45:10;;;;;;;12.93;11.40;;;;;;;25.59;46.98;97143.09;5009182;28;20291;-70
2023/05/22 07:47:36;;;;;;;11.77;10.50;;;;;;;25.48;46.63;97144.03;5017290;28;20192;-70
2023/05/22 07:50:03;;;;;;;11.20;10.00;;;;;;;25.45;47.23;97148.03;4990979;28;20194;-67
2023/05/22 07:52:29;;;;;;;12.07;10.87;;;;;;;25.41;47.44;97143.44;5007802;28;20283;-69
2023/05/22 07:54:54;;;;;;;10.87;9.53;;;;;;;25.42;47.56;97145.06;4991059;28;20530;-68
2023/05/22 07:57:21;;;;;;;12.33;10.93;;;;;;;25.41;48.36;97143.44;5011887;28;20665;-71
2023/05/22 07:59:47;;;;;;;16.57;10.30;;;;;;;25.38;48.39;97142.03;5007731;28;20287;-70
2023/05/22 08:02:13;;;;;;;12.83;11.47;;;;;;;25.36;48.15;97140.63;5000303;28;20510;-71
2023/05/22 08:04:39;;;;;;;10.90;9.80;;;;;;;25.22;48.16;97149.06;5014461;28;20212;-70
2023/05/22 08:07:05;;;;;;;13.23;10.60;;;;;;;25.02;48.33;97154.16;5011197;28;20189;-71
2023/05/22 08:09:30;;;;;;;12.00;10.63;;;;;;;24.95;48.71;97144.41;5013470;28;20661;-70
2023/05/22 08:11:56;;;;;;;13.53;10.60;;;;;;;24.98;49.19;97153.84;5013641;28;20434;-72
2023/05/22 08:14:22;;;;;;;11.70;10.53;;;;;;;24.94;48.75;97145.47;5010173;28;20696;-71
2023/05/22 08:16:47;;;;;;;12.17;10.97;;;;;;;24.84;48.95;97154.19;5021399;28;20195;-70
2023/05/22 08:19:13;;;;;;;11.33;9.77;;;;;;;24.80;49.42;97157.59;5046259;28;20196;-71
2023/05/22 08:21:39;;;;;;;13.47;10.97;;;;;;;24.77;48.95;97158.09;5013313;28;20572;-71
2023/05/22 08:24:05;;;;;;;12.40;11.10;;;;;;;24.79;48.91;97153.31;5016848;28;20193;-71
2023/05/22 08:26:32;;;;;;;14.17;11.83;;;;;;;24.79;49.07;97151.41;5025552;28;20220;-71
2023/05/22 08:28:58;;;;;;;13.13;11.27;;;;;;;24.87;49.45;97150.19;5021144;28;20526;-71
2023/05/22 08:31:24;;;;;;;14.13;10.90;;;;;;;24.89;49.34;97148.09;5021220;28;20446;-71
2023/05/22 08:33:49;;;;;;;15.67;11.00;;;;;;;24.92;49.37;97149.44;5018673;28;20525;-70
2023/05/22 08:36:15;;;;;;;12.37;10.70;;;;;;;25.02;49.25;97140.75;5018485;28;20216;-71
2023/05/22 08:38:41;;;;;;;13.83;11.00;;;;;;;25.12;49.23;97152.44;5017768;28;20197;-71
2023/05/22 08:41:07;;;;;;;11.43;10.23;;;;;;;25.26;48.82;97147.50;5010436;28;20219;-70
2023/05/22 08:43:32;;;;;;;19.37;11.70;;;;;;;25.54;47.91;97143.06;5017611;28;20200;-71
2023/05/22 08:46:04;;;;;;;17.83;11.23;;;;;;;25.73;47.29;97142.69;5016991;28;20460;-72
2023/05/22 08:48:31;;;;;;;11.80;10.13;;;;;;;25.92;47.28;97143.16;5019083;28;20875;-70
2023/05/22 08:51:00;;;;;;;12.93;10.83;;;;;;;26.17;47.40;97139.13;5016407;28;20947;-71
2023/05/22 08:53:27;;;;;;;11.57;10.30;;;;;;;26.43;46.99;97137.50;5022784;28;21216;-70
2023/05/22 08:55:52;;;;;;;11.97;10.63;;;;;;;26.75;45.71;97147.38;5021726;28;20504;-71
2023/05/22 08:58:18;;;;;;;11.57;10.17;;;;;;;27.18;45.53;97141.22;5018799;28;20435;-71
2023/05/22 09:00:43;;;;;;;13.90;10.40;;;;;;;27.28;44.45;97146.63;5027445;28;20674;-71
2023/05/22 09:03:12;;;;;;;12.53;9.17;;;;;;;27.39;44.11;97134.06;5020007;28;21015;-71
2023/05/22 09:05:39;;;;;;;13.83;10.10;;;;;;;27.68;44.06;97142.53;5009108;28;20212;-71
2023/05/22 09:08:06;;;;;;;11.23;9.60;;;;;;;27.98;43.74;97140.16;5011636;28;20437;-71
2023/05/22 09:10:32;;;;;;;10.53;9.50;;;;;;;28.26;43.11;97130.00;5021353;28;20473;-70
2023/05/22 09:13:06;;;;;;;12.07;10.00;;;;;;;28.48;41.58;97133.22;5012781;28;20943;-71
2023/05/22 09:15:32;;;;;;;13.23;10.33;;;;;;;28.76;40.90;97131.06;5020383;28;20212;-71
2023/05/22 09:17:58;;;;;;;11.50;9.73;;;;;;;28.88;40.09;97130.75;5016289;28;20457;-70
2023/05/22 09:20:24;;;;;;;10.27;9.00;;;;;;;29.09;39.41;97128.03;5018139;28;20449;-70
2023/05/22 09:22:49;;;;;;;10.40;9.27;;;;;;;29.40;40.34;97125.22;5015945;28;20783;-70
2023/05/22 09:25:19;;;;;;;12.67;9.60;;;;;;;29.70;39.49;97131.56;5023721;28;20234;-71
2023/05/22 09:27:47;;;;;;;10.53;9.47;;;;;;;29.97;39.42;97130.34;5014693;28;20578;-69
2023/05/22 09:30:17;;;;;;;14.73;9.60;;;;;;;30.19;38.02;97133.44;5024054;28;20482;-71
2023/05/22 09:32:43;;;;;;;11.50;9.40;;;;;;;30.44;37.62;97128.91;5016966;28;20446;-70
2023/05/22 09:35:09;;;;;;;10.90;8.83;;;;;;;30.70;37.47;97131.41;5017541;28;20553;-71
2023/05/22 09:37:35;;;;;;;13.27;9.67;;;;;;;30.79;36.70;97121.56;5021428;28;20923;-70
2023/05/22 09:40:05;;;;;;;10.27;9.23;;;;;;;30.92;36.27;97127.41;5008754;28;20641;-71
2023/05/22 09:42:33;;;;;;;19.87;9.50;;;;;;;30.86;36.17;97128.56;5011790;28;20458;-70
2023/05/22 09:45:06;;;;;;;11.60;9.60;;;;;;;30.68;36.50;97130.09;5015788;28;20481;-71
2023/05/22 09:47:33;;;;;;;19.00;9.90;;;;;;;30.63;37.03;97129.03;5014509;28;20439;-71
2023/05/22 09:49:59;;;;;;;11.43;9.30;;;;;;;30.43;36.84;97130.00;5012633;28;20422;-71
2023/05/22 09:52:27;;;;;;;10.27;9.27;;;;;;;30.40;36.70;97127.84;5021249;28;20453;-70
2023/05/22 09:54:55;;;;;;;10.23;8.90;;;;;;;30.41;36.83;97125.97;5019006;28;20482;-72
2023/05/22 09:57:23;;;;;;;16.53;10.60;;;;;;;30.45;36.63;97125.13;5012450;28;21261;-71
2023/05/22 09:59:53;;;;;;;16.07;9.60;;;;;;;30.54;36.63;97128.06;5009894;28;20496;-70
2023/05/22 10:02:25;;;;;;;9.80;8.90;;;;;;;30.77;36.68;97133.78;5013426;28;20438;-71
2023/05/22 10:04:51;;;;;;;11.83;9.27;;;;;;;30.97;36.90;97129.25;5017411;28;20510;-71
2023/05/22 10:07:33;;;;;;;13.80;9.37;;;;;;;31.24;37.21;97128.72;5018586;28;20431;-71
2023/05/22 10:10:08;;;;;;;10.97;9.37;;;;;;;31.47;35.31;97134.38;4991710;28;20191;-71
2023/05/22 10:12:40;;;;;;;9.97;8.57;;;;;;;31.60;34.59;97130.97;5008210;28;20438;-71
2023/05/22 10:15:08;;;;;;;11.10;8.63;;;;;;;31.76;34.14;97134.28;5010780;28;20455;-70
2023/05/22 10:17:34;;;;;;;17.37;8.50;;;;;;;31.85;34.01;97134.44;5020152;28;20970;-70
2023/05/22 10:20:00;;;;;;;12.27;8.80;;;;;;;31.96;34.85;97138.63;5011229;28;20522;-71
2023/05/22 10:22:28;;;;;;;10.03;9.03;;;;;;;32.12;34.36;97127.53;5017692;28;21001;-72
2023/05/22 10:24:53;;;;;;;12.80;9.53;;;;;;;32.11;33.54;97128.66;5013550;28;20466;-72
2023/05/22 10:27:19;;;;;;;15.93;9.00;;;;;;;31.81;34.21;97125.28;5008745;28;20999;-71
2023/05/22 10:30:09;;;;;;;9.40;8.43;;;;;;;31.97;34.01;97126.69;5009557;28;20191;-69
2023/05/22 10:32:40;;;;;;;10.93;8.57;;;;;;;32.21;33.89;97128.47;5009712;28;20196;-72
2023/05/22 10:35:26;;;;;;;10.43;8.60;;;;;;;32.23;33.52;97120.88;5008689;28;21033;-71
2023/05/22 10:38:15;;;;;;;9.30;8.40;;;;;;;32.36;34.46;97122.03;5008801;28;20427;-71
2023/05/22 10:40:44;;;;;;;9.63;8.73;;;;;;;32.47;33.63;97122.66;5009048;28;20438;-70
2023/05/22 10:43:10;;;;;;;9.57;8.10;;;;;;;32.58;33.43;97107.81;5022175;28;20479;-71
2023/05/22 10:45:35;;;;;;;18.97;8.73;;;;;;;32.74;32.65;97102.13;5016010;28;21060;-69
2023/05/22 10:48:05;;;;;;;12.50;8.97;;;;;;;32.69;32.30;97104.94;5010096;28;20279;-70
2023/05/22 10:50:30;;;;;;;12.17;8.60;;;;;;;32.68;32.05;97097.88;5014433;28;20200;-71
2023/05/22 10:53:27;;;;;;;8.73;7.90;;;;;;;32.71;31.87;97102.72;5012969;28;20458;-71
2023/05/22 10:55:57;;;;;;;13.77;8.70;;;;;;;32.76;32.52;97094.50;5010902;28;20222;-70
2023/05/22 10:58:30;;;;;;;9.63;8.30;;;;;;;32.73;32.37;97095.09;5012719;28;20438;-71
2023/05/22 11:01:18;;;;;;;20.83;9.83;;;;;;;32.73;32.06;97090.47;5008662;28;20554;-71
2023/05/22 11:04:12;;;;;;;11.90;9.10;;;;;;;32.83;32.31;97084.06;5011247;28;20940;-68
2023/05/22 11:06:57;;;;;;;10.17;8.43;;;;;;;33.00;32.57;97085.41;5028908;28;20470;-69
2023/05/22 11:09:42;;;;;;;10.70;8.70;;;;;;;33.04;32.43;97083.66;5013910;28;20441;-71
2023/05/22 11:12:24;;;;;;;14.93;8.93;;;;;;;33.14;31.88;97078.06;5016948;28;20439;-71
2023/05/22 11:15:07;;;;;;;12.43;8.77;;;;;;;33.22;31.56;97074.63;5014557;28;20443;-71
2023/05/22 11:17:39;;;;;;;10.13;8.73;;;;;;;33.33;31.15;97075.19;5013030;28;20529;-70
2023/05/22 11:20:12;;;;;;;11.07;8.73;;;;;;;33.30;31.83;97072.28;5010842;28;20428;-71
2023/05/22 11:22:39;;;;;;;11.40;8.80;;;;;;;33.37;31.76;97070.78;5020609;28;20924;-70